createdAt,value
2018-04-10T00:00:30.866Z,60.54
2018-04-10T00:01:30.842Z,60.83
2018-04-10T00:02:30.825Z,60.64
2018-04-10T00:03:30.808Z,60.44
2018-04-10T00:04:30.791Z,60.64
2018-04-10T00:05:30.776Z,60.86
2018-04-10T00:06:30.758Z,60.73
2018-04-10T00:07:30.740Z,61.02
2018-04-10T00:08:30.722Z,60.54
2018-04-10T00:09:30.706Z,60.64
2018-04-10T00:10:30.690Z,60.64
2018-04-10T00:11:30.674Z,61.50
2018-04-10T00:12:30.654Z,61.31
2018-04-10T00:13:30.637Z,61.21
2018-04-10T00:14:30.620Z,60.93
2018-04-10T00:15:30.604Z,61.69
2018-04-10T00:16:30.588Z,61.40
2018-04-10T00:17:30.570Z,61.11
2018-04-10T00:18:30.552Z,61.21
2018-04-10T00:19:30.534Z,61.69
2018-04-10T00:20:30.543Z,61.60
2018-04-10T00:21:30.500Z,61.50
2018-04-10T00:22:30.484Z,61.31
2018-04-10T00:23:30.468Z,61.79
2018-04-10T00:24:30.449Z,62.17
2018-04-10T00:25:30.436Z,62.26
2018-04-10T00:26:30.422Z,61.79
2018-04-10T00:27:30.401Z,61.88
2018-04-10T00:28:30.381Z,62.07
2018-04-10T00:29:30.366Z,61.98
2018-04-10T00:30:30.350Z,62.26
2018-04-10T00:31:30.331Z,62.26
2018-04-10T00:32:30.314Z,62.26
2018-04-10T00:33:30.298Z,62.84
2018-04-10T00:34:30.279Z,62.36
2018-04-10T00:35:30.264Z,62.55
2018-04-10T00:36:30.247Z,62.36
2018-04-10T00:37:30.229Z,62.84
2018-04-10T00:38:30.212Z,62.55
2018-04-10T00:39:30.195Z,62.93
2018-04-10T00:40:30.180Z,62.65
2018-04-10T00:41:30.160Z,62.55
2018-04-10T00:42:30.146Z,62.65
2018-04-10T00:43:30.125Z,62.65
2018-04-10T00:44:30.108Z,63.13
2018-04-10T00:45:30.092Z,63.22
2018-04-10T00:46:30.077Z,62.93
2018-04-10T00:47:30.062Z,63.22
2018-04-10T00:48:30.039Z,63.03
2018-04-10T00:49:30.023Z,63.13
2018-04-10T00:50:30.010Z,62.84
2018-04-10T00:51:29.992Z,63.13
2018-04-10T00:52:29.972Z,63.22
2018-04-10T00:53:29.956Z,63.42
2018-04-10T00:54:29.967Z,63.51
2018-04-10T00:55:29.924Z,63.42
2018-04-10T00:56:29.919Z,64.18
2018-04-10T00:57:29.888Z,64.18
2018-04-10T00:58:29.870Z,63.80
2018-04-10T00:59:29.875Z,63.99
2018-04-10T01:00:29.836Z,63.99
2018-04-10T01:01:29.819Z,63.57
2018-04-10T01:02:29.802Z,63.57
2018-04-10T01:03:29.785Z,63.96
2018-04-10T01:04:29.766Z,63.96
2018-04-10T01:05:29.751Z,63.99
2018-04-10T01:06:29.735Z,64.63
2018-04-10T01:07:29.716Z,64.76
2018-04-10T01:08:29.699Z,64.72
2018-04-10T01:09:29.680Z,64.82
2018-04-10T01:10:29.665Z,64.72
2018-04-10T01:11:29.648Z,64.82
2018-04-10T01:12:29.630Z,64.92
2018-04-10T01:13:29.613Z,65.11
2018-04-10T01:14:29.596Z,65.01
2018-04-10T01:15:29.579Z,65.11
2018-04-10T01:16:29.560Z,65.49
2018-04-10T01:17:29.549Z,65.39
2018-04-10T01:18:29.527Z,65.01
2018-04-10T01:19:29.513Z,65.39
2018-04-10T01:20:29.492Z,65.30
2018-04-10T01:21:29.475Z,65.01
2018-04-10T01:22:29.472Z,64.92
2018-04-10T01:23:29.440Z,64.34
2018-04-10T01:24:29.423Z,64.15
2018-04-10T01:25:29.407Z,64.43
2018-04-10T01:26:29.389Z,64.63
2018-04-10T01:27:29.375Z,64.63
2018-04-10T01:28:29.353Z,64.34
2018-04-10T01:29:29.336Z,64.53
2018-04-10T01:30:29.332Z,65.11
2018-04-10T01:31:29.304Z,65.01
2018-04-10T01:32:29.284Z,65.20
2018-04-10T01:33:29.271Z,64.92
2018-04-10T01:34:29.253Z,65.20
2018-04-10T01:35:29.233Z,65.20
2018-04-10T01:36:29.222Z,65.58
2018-04-10T01:37:29.202Z,65.39
2018-04-10T01:38:29.184Z,65.39
2018-04-10T01:39:29.164Z,65.68
2018-04-10T01:40:29.146Z,65.20
2018-04-10T01:41:29.130Z,65.01
2018-04-10T01:42:29.112Z,65.58
2018-04-10T01:43:29.096Z,65.11
2018-04-10T01:44:29.080Z,65.01
2018-04-10T01:45:29.065Z,65.11
2018-04-10T01:46:29.050Z,65.49
2018-04-10T01:47:29.028Z,65.39
2018-04-10T01:48:29.009Z,65.20
2018-04-10T01:49:28.992Z,65.68
2018-04-10T01:50:28.974Z,65.78
2018-04-10T01:51:28.957Z,65.39
2018-04-10T01:52:28.940Z,65.49
2018-04-10T01:53:28.930Z,65.78
2018-04-10T01:54:28.905Z,65.49
2018-04-10T01:55:28.897Z,65.39
2018-04-10T01:56:28.883Z,65.20
2018-04-10T01:57:28.857Z,65.88
2018-04-10T01:58:28.847Z,65.68
2018-04-10T01:59:28.818Z,65.88
2018-04-10T02:00:28.824Z,66.06
2018-04-10T02:01:28.784Z,66.06
2018-04-10T02:02:28.768Z,66.06
2018-04-10T02:03:28.751Z,65.97
2018-04-10T02:04:28.731Z,66.06
2018-04-10T02:05:28.714Z,66.06
2018-04-10T02:06:28.700Z,66.45
2018-04-10T02:07:28.680Z,66.06
2018-04-10T02:08:28.665Z,66.35
2018-04-10T02:09:28.646Z,66.45
2018-04-10T02:10:28.650Z,67.21
2018-04-10T02:11:28.661Z,66.45
2018-04-10T02:12:28.597Z,66.45
2018-04-10T02:13:28.583Z,66.45
2018-04-10T02:14:28.567Z,66.35
2018-04-10T02:15:28.541Z,67.11
2018-04-10T02:16:28.525Z,67.02
2018-04-10T02:17:28.507Z,66.93
2018-04-10T02:18:28.490Z,67.21
2018-04-10T02:19:28.488Z,66.93
2018-04-10T02:20:28.454Z,67.66
2018-04-10T02:21:28.438Z,67.76
2018-04-10T02:22:28.421Z,66.89
2018-04-10T02:23:28.409Z,67.27
2018-04-10T02:24:28.394Z,68.13
2018-04-10T02:25:28.380Z,67.76
2018-04-10T02:26:28.355Z,68.42
2018-04-10T02:27:28.335Z,68.33
2018-04-10T02:28:28.324Z,67.85
2018-04-10T02:29:28.822Z,68.04
2018-04-10T02:30:28.283Z,68.13
2018-04-10T02:31:28.266Z,67.94
2018-04-10T02:32:28.247Z,68.23
2018-04-10T02:33:28.228Z,68.90
2018-04-10T02:34:28.211Z,68.62
2018-04-10T02:35:28.196Z,68.52
2018-04-10T02:36:28.175Z,68.52
2018-04-10T02:37:28.163Z,68.71
2018-04-10T02:38:28.142Z,69.00
2018-04-10T02:39:28.141Z,68.80
2018-04-10T02:40:28.108Z,68.90
2018-04-10T02:41:28.089Z,68.80
2018-04-10T02:42:28.099Z,69.57
2018-04-10T02:43:28.054Z,69.76
2018-04-10T02:44:28.035Z,69.86
2018-04-10T02:45:28.019Z,69.95
2018-04-10T02:46:28.002Z,70.05
2018-04-10T02:47:27.985Z,69.76
2018-04-10T02:48:27.966Z,70.01
2018-04-10T02:49:27.953Z,70.24
2018-04-10T02:50:27.932Z,70.40
2018-04-10T02:51:27.925Z,70.11
2018-04-10T02:52:27.898Z,70.01
2018-04-10T02:53:27.880Z,70.68
2018-04-10T02:54:27.861Z,70.40
2018-04-10T02:55:27.842Z,70.68
2018-04-10T02:56:27.825Z,70.40
2018-04-10T02:57:27.827Z,70.78
2018-04-10T02:58:27.790Z,70.11
2018-04-10T02:59:27.774Z,71.07
2018-04-10T03:00:27.757Z,70.59
2018-04-10T03:01:27.759Z,71.16
2018-04-10T03:02:27.721Z,71.36
2018-04-10T03:03:27.701Z,71.55
2018-04-10T03:04:27.683Z,71.55
2018-04-10T03:05:27.667Z,71.64
2018-04-10T03:06:27.655Z,72.22
2018-04-10T03:07:27.632Z,72.02
2018-04-10T03:08:27.612Z,72.28
2018-04-10T03:09:27.594Z,72.28
2018-04-10T03:10:27.579Z,73.33
2018-04-10T03:11:27.561Z,72.66
2018-04-10T03:12:27.542Z,73.04
2018-04-10T03:13:27.527Z,73.04
2018-04-10T03:14:27.536Z,72.75
2018-04-10T03:15:27.489Z,73.23
2018-04-10T03:16:27.468Z,72.66
2018-04-10T03:17:27.452Z,73.52
2018-04-10T03:18:27.436Z,73.61
2018-04-10T03:19:27.438Z,73.90
2018-04-10T03:20:27.476Z,73.80
2018-04-10T03:21:27.381Z,73.33
2018-04-10T03:22:27.363Z,73.23
2018-04-10T03:23:27.344Z,73.99
2018-04-10T03:24:27.329Z,73.99
2018-04-10T03:25:27.308Z,73.71
2018-04-10T03:26:27.294Z,73.71
2018-04-10T03:27:27.272Z,74.09
2018-04-10T03:28:27.256Z,74.28
2018-04-10T03:29:27.257Z,74.09
2018-04-10T03:30:27.217Z,74.76
2018-04-10T03:31:27.210Z,74.76
2018-04-10T03:32:27.227Z,74.76
2018-04-10T03:33:27.168Z,74.44
2018-04-10T03:34:27.148Z,75.30
2018-04-10T03:35:27.150Z,74.76
2018-04-10T03:36:27.109Z,74.82
2018-04-10T03:37:27.100Z,75.01
2018-04-10T03:38:27.077Z,75.10
2018-04-10T03:39:27.057Z,75.30
2018-04-10T03:40:27.053Z,75.20
2018-04-10T03:41:27.018Z,75.20
2018-04-10T03:42:27.009Z,75.59
2018-04-10T03:43:26.984Z,75.78
2018-04-10T03:44:26.964Z,76.16
2018-04-10T03:45:26.943Z,75.87
2018-04-10T03:46:26.929Z,75.96
2018-04-10T03:47:26.908Z,76.73
2018-04-10T03:48:26.891Z,76.82
2018-04-10T03:49:26.872Z,77.11
2018-04-10T03:50:26.869Z,77.21
2018-04-10T03:51:26.890Z,77.01
2018-04-10T03:52:26.815Z,77.21
2018-04-10T03:53:26.799Z,77.01
2018-04-10T03:54:26.784Z,76.82
2018-04-10T03:55:26.767Z,77.21
2018-04-10T03:56:27.663Z,76.82
2018-04-10T03:57:26.725Z,77.11
2018-04-10T03:58:26.709Z,77.30
2018-04-10T03:59:26.689Z,77.11
2018-04-10T04:00:26.668Z,77.30
2018-04-10T04:01:26.653Z,77.30
2018-04-10T04:02:26.635Z,76.88
2018-04-10T04:03:26.617Z,77.94
2018-04-10T04:04:26.619Z,77.30
2018-04-10T04:05:26.585Z,77.74
2018-04-10T04:06:26.571Z,77.74
2018-04-10T04:07:26.540Z,77.74
2018-04-10T04:08:26.588Z,77.74
2018-04-10T04:09:26.527Z,77.45
2018-04-10T04:10:26.503Z,77.45
2018-04-10T04:11:27.265Z,77.36
2018-04-10T04:12:26.461Z,78.13
2018-04-10T04:13:26.453Z,78.03
2018-04-10T04:14:26.422Z,78.03
2018-04-10T04:15:26.435Z,78.03
2018-04-10T04:16:26.377Z,77.84
2018-04-10T04:17:26.378Z,78.03
2018-04-10T04:18:26.339Z,78.22
2018-04-10T04:19:26.371Z,78.22
2018-04-10T04:20:26.326Z,78.79
2018-04-10T04:21:26.362Z,78.79
2018-04-10T04:22:26.264Z,78.51
2018-04-10T04:23:26.255Z,78.51
2018-04-10T04:24:26.226Z,78.31
2018-04-10T04:25:26.209Z,78.70
2018-04-10T04:26:26.190Z,78.22
2018-04-10T04:27:26.171Z,78.22
2018-04-10T04:28:26.262Z,78.41
2018-04-10T04:29:26.133Z,78.41
2018-04-10T04:30:26.114Z,78.51
2018-04-10T04:31:26.097Z,78.03
2018-04-10T04:32:26.078Z,78.31
2018-04-10T04:33:26.060Z,78.99
2018-04-10T04:34:26.044Z,78.79
2018-04-10T04:35:26.116Z,78.70
2018-04-10T04:36:26.007Z,78.99
2018-04-10T04:37:25.984Z,79.17
2018-04-10T04:38:26.051Z,79.17
2018-04-10T04:39:25.950Z,79.56
2018-04-10T04:40:25.928Z,79.56
2018-04-10T04:41:25.925Z,79.65
2018-04-10T04:42:25.891Z,79.36
2018-04-10T04:43:25.875Z,80.13
2018-04-10T04:44:25.853Z,80.04
2018-04-10T04:45:25.852Z,79.75
2018-04-10T04:46:25.817Z,80.32
2018-04-10T04:47:25.812Z,79.75
2018-04-10T04:48:25.798Z,79.94
2018-04-10T04:49:25.777Z,80.04
2018-04-10T04:50:25.742Z,80.22
2018-04-10T04:51:25.734Z,80.22
2018-04-10T04:52:25.705Z,80.13
2018-04-10T04:53:26.198Z,80.32
2018-04-10T04:54:25.667Z,79.94
2018-04-10T04:55:25.649Z,80.13
2018-04-10T04:56:25.630Z,79.56
2018-04-10T04:57:25.612Z,80.04
2018-04-10T04:58:25.618Z,80.22
2018-04-10T04:59:25.574Z,80.13
2018-04-10T05:00:25.553Z,80.04
2018-04-10T05:01:25.537Z,79.56
2018-04-10T05:02:25.518Z,80.13
2018-04-10T05:03:25.512Z,79.85
2018-04-10T05:04:25.480Z,80.32
2018-04-10T05:05:25.466Z,80.32
2018-04-10T05:06:25.443Z,80.32
2018-04-10T05:07:25.423Z,80.22
2018-04-10T05:08:25.425Z,80.41
2018-04-10T05:09:25.390Z,80.32
2018-04-10T05:10:25.368Z,80.22
2018-04-10T05:11:25.353Z,80.51
2018-04-10T05:12:25.334Z,80.22
2018-04-10T05:13:25.311Z,80.61
2018-04-10T05:14:25.355Z,80.61
2018-04-10T05:15:25.313Z,80.61
2018-04-10T05:16:25.257Z,80.74
2018-04-10T05:17:25.236Z,80.74
2018-04-10T05:18:25.219Z,80.27
2018-04-10T05:19:25.202Z,80.46
2018-04-10T05:20:25.183Z,80.27
2018-04-10T05:21:25.164Z,80.55
2018-04-10T05:22:25.144Z,80.65
2018-04-10T05:23:25.128Z,80.84
2018-04-10T05:24:25.109Z,80.55
2018-04-10T05:25:25.091Z,80.46
2018-04-10T05:26:25.070Z,80.46
2018-04-10T05:27:25.052Z,80.74
2018-04-10T05:28:25.033Z,80.55
2018-04-10T05:29:25.015Z,80.17
2018-04-10T05:30:24.996Z,80.36
2018-04-10T05:31:24.979Z,80.27
2018-04-10T05:32:24.958Z,80.27
2018-04-10T05:33:24.941Z,80.27
2018-04-10T05:34:24.921Z,80.07
2018-04-10T05:35:24.940Z,79.93
2018-04-10T05:36:24.884Z,79.73
2018-04-10T05:37:24.867Z,80.11
2018-04-10T05:38:24.848Z,79.44
2018-04-10T05:39:24.831Z,79.88
2018-04-10T05:40:24.832Z,80.11
2018-04-10T05:41:24.792Z,79.83
2018-04-10T05:42:24.777Z,80.40
2018-04-10T05:43:24.760Z,80.40
2018-04-10T05:44:24.738Z,80.30
2018-04-10T05:45:24.719Z,80.27
2018-04-10T05:46:24.704Z,80.21
2018-04-10T05:47:24.683Z,80.21
2018-04-10T05:48:24.664Z,80.11
2018-04-10T05:49:24.646Z,79.54
2018-04-10T05:50:24.627Z,79.64
2018-04-10T05:51:24.610Z,79.25
2018-04-10T05:52:24.593Z,79.25
2018-04-10T05:53:24.572Z,79.54
2018-04-10T05:54:24.558Z,80.11
2018-04-10T05:55:24.536Z,80.11
2018-04-10T05:56:24.517Z,79.54
2018-04-10T05:57:24.504Z,79.73
2018-04-10T05:58:24.482Z,79.64
2018-04-10T05:59:24.467Z,79.73
2018-04-10T06:00:24.444Z,79.16
2018-04-10T06:01:24.428Z,78.87
2018-04-10T06:02:24.416Z,79.16
2018-04-10T06:03:24.392Z,79.16
2018-04-10T06:04:24.374Z,78.97
2018-04-10T06:05:24.371Z,79.35
2018-04-10T06:06:24.337Z,78.87
2018-04-10T06:07:24.317Z,78.87
2018-04-10T06:08:24.300Z,78.68
2018-04-10T06:09:24.287Z,78.01
2018-04-10T06:10:24.262Z,78.49
2018-04-10T06:11:24.245Z,77.92
2018-04-10T06:12:24.227Z,77.72
2018-04-10T06:13:24.208Z,78.05
2018-04-10T06:14:24.189Z,77.38
2018-04-10T06:15:24.173Z,77.95
2018-04-10T06:16:24.161Z,77.67
2018-04-10T06:17:24.146Z,77.67
2018-04-10T06:18:24.124Z,78.14
2018-04-10T06:19:24.167Z,78.14
2018-04-10T06:20:24.083Z,78.14
2018-04-10T06:21:24.071Z,77.48
2018-04-10T06:22:24.181Z,77.48
2018-04-10T06:23:24.030Z,77.38
2018-04-10T06:24:24.010Z,77.28
2018-04-10T06:25:23.993Z,77.28
2018-04-10T06:26:23.975Z,77.00
2018-04-10T06:27:23.960Z,76.84
2018-04-10T06:28:23.945Z,76.18
2018-04-10T06:29:23.921Z,76.27
2018-04-10T06:30:23.902Z,75.98
2018-04-10T06:31:23.890Z,76.27
2018-04-10T06:32:23.869Z,75.98
2018-04-10T06:33:23.906Z,76.18
2018-04-10T06:34:23.973Z,75.89
2018-04-10T06:35:23.816Z,75.89
2018-04-10T06:36:23.798Z,75.98
2018-04-10T06:37:23.783Z,75.89
2018-04-10T06:38:23.761Z,75.79
2018-04-10T06:39:23.747Z,75.51
2018-04-10T06:40:23.727Z,75.31
2018-04-10T06:41:23.709Z,75.70
2018-04-10T06:42:23.690Z,75.12
2018-04-10T06:43:23.674Z,74.97
2018-04-10T06:44:23.653Z,75.35
2018-04-10T06:45:23.639Z,74.87
2018-04-10T06:46:23.622Z,74.49
2018-04-10T06:47:23.602Z,74.40
2018-04-10T06:48:23.582Z,75.07
2018-04-10T06:49:23.568Z,74.58
2018-04-10T06:50:23.549Z,74.40
2018-04-10T06:51:23.533Z,74.30
2018-04-10T06:52:23.518Z,74.49
2018-04-10T06:53:23.498Z,73.72
2018-04-10T06:54:23.478Z,72.86
2018-04-10T06:55:23.461Z,72.67
2018-04-10T06:56:23.444Z,72.61
2018-04-10T06:57:23.483Z,73.19
2018-04-10T06:58:23.409Z,73.47
2018-04-10T06:59:23.392Z,72.23
2018-04-10T07:00:23.372Z,72.71
2018-04-10T07:01:23.358Z,73.28
2018-04-10T07:02:23.341Z,72.80
2018-04-10T07:03:23.323Z,72.03
2018-04-10T07:04:23.306Z,72.52
2018-04-10T07:05:23.288Z,70.79
2018-04-10T07:06:23.276Z,70.41
2018-04-10T07:07:23.254Z,70.73
2018-04-10T07:08:23.245Z,71.56
2018-04-10T07:09:23.219Z,71.02
2018-04-10T07:10:23.204Z,70.35
2018-04-10T07:11:23.186Z,70.44
2018-04-10T07:12:23.168Z,70.25
2018-04-10T07:13:23.175Z,70.73
2018-04-10T07:14:23.137Z,70.44
2018-04-10T07:15:23.126Z,69.77
2018-04-10T07:16:23.103Z,69.10
2018-04-10T07:17:23.081Z,68.91
2018-04-10T07:18:23.066Z,69.87
2018-04-10T07:19:23.048Z,69.48
2018-04-10T07:20:23.037Z,69.48
2018-04-10T07:21:23.015Z,69.48
2018-04-10T07:22:22.996Z,69.58
2018-04-10T07:23:22.991Z,69.29
2018-04-10T07:24:23.157Z,69.13
2018-04-10T07:25:22.967Z,68.81
2018-04-10T07:26:22.932Z,69.01
2018-04-10T07:27:22.913Z,69.42
2018-04-10T07:28:22.895Z,69.13
2018-04-10T07:29:22.885Z,68.56
2018-04-10T07:30:22.863Z,68.56
2018-04-10T07:31:22.848Z,69.04
2018-04-10T07:32:22.836Z,69.04
2018-04-10T07:33:22.813Z,68.66
2018-04-10T07:34:22.798Z,69.04
2018-04-10T07:35:22.780Z,67.02
2018-04-10T07:36:22.763Z,67.41
2018-04-10T07:37:22.763Z,66.35
2018-04-10T07:38:22.731Z,66.35
2018-04-10T07:39:22.727Z,66.93
2018-04-10T07:40:22.702Z,67.41
2018-04-10T07:41:22.683Z,67.12
2018-04-10T07:42:22.716Z,67.50
2018-04-10T07:43:22.650Z,68.46
2018-04-10T07:44:22.631Z,67.41
2018-04-10T07:45:22.613Z,67.79
2018-04-10T07:46:22.597Z,66.86
2018-04-10T07:47:22.583Z,65.88
2018-04-10T07:48:22.563Z,66.16
2018-04-10T07:49:22.546Z,66.10
2018-04-10T07:50:22.532Z,65.33
2018-04-10T07:51:22.527Z,65.81
2018-04-10T07:52:22.505Z,65.52
2018-04-10T07:53:22.480Z,65.43
2018-04-10T07:54:22.466Z,64.56
2018-04-10T07:55:22.450Z,63.99
2018-04-10T07:56:22.433Z,63.79
2018-04-10T07:57:22.415Z,64.18
2018-04-10T07:58:22.398Z,64.47
2018-04-10T07:59:22.383Z,65.33
2018-04-10T08:00:22.367Z,65.14
2018-04-10T08:01:22.351Z,65.91
2018-04-10T08:02:22.333Z,65.05
2018-04-10T08:03:22.331Z,64.09
2018-04-10T08:04:22.302Z,63.79
2018-04-10T08:05:22.284Z,64.76
2018-04-10T08:06:22.289Z,65.05
2018-04-10T08:07:22.253Z,64.09
2018-04-10T08:08:22.236Z,63.83
2018-04-10T08:09:22.222Z,63.70
2018-04-10T08:10:22.203Z,64.09
2018-04-10T08:11:22.189Z,64.09
2018-04-10T08:12:22.173Z,63.79
2018-04-10T08:13:22.156Z,64.22
2018-04-10T08:14:22.138Z,63.89
2018-04-10T08:15:22.122Z,64.22
2018-04-10T08:16:22.105Z,64.79
2018-04-10T08:17:22.450Z,64.89
2018-04-10T08:18:22.074Z,65.94
2018-04-10T08:19:22.059Z,65.36
2018-04-10T08:20:22.048Z,65.08
2018-04-10T08:21:22.027Z,65.08
2018-04-10T08:22:22.015Z,65.84
2018-04-10T08:23:22.386Z,64.89
2018-04-10T08:24:21.985Z,64.89
2018-04-10T08:25:21.966Z,65.46
2018-04-10T08:26:21.943Z,64.79
2018-04-10T08:27:21.927Z,65.84
2018-04-10T08:28:21.922Z,65.56
2018-04-10T08:29:21.894Z,66.52
2018-04-10T08:30:21.882Z,65.30
2018-04-10T08:31:21.869Z,66.16
2018-04-10T08:32:21.849Z,66.16
2018-04-10T08:33:21.832Z,65.88
2018-04-10T08:34:21.818Z,65.40
2018-04-10T08:35:21.800Z,65.30
2018-04-10T08:36:21.783Z,65.20
2018-04-10T08:37:21.769Z,63.96
2018-04-10T08:38:21.752Z,64.15
2018-04-10T08:39:21.737Z,63.76
2018-04-10T08:40:21.720Z,63.57
2018-04-10T08:41:21.709Z,63.28
2018-04-10T08:42:21.690Z,63.38
2018-04-10T08:43:21.673Z,62.81
2018-04-10T08:44:21.657Z,63.38
2018-04-10T08:45:21.641Z,63.38
2018-04-10T08:46:21.686Z,63.96
2018-04-10T08:47:21.609Z,64.05
2018-04-10T08:48:21.593Z,64.92
2018-04-10T08:49:21.579Z,63.76
2018-04-10T08:50:21.562Z,62.99
2018-04-10T08:51:21.545Z,63.12
2018-04-10T08:52:21.529Z,63.22
2018-04-10T08:53:21.517Z,62.84
2018-04-10T08:54:21.500Z,62.35
2018-04-10T08:55:21.484Z,62.84
2018-04-10T08:56:21.467Z,63.12
2018-04-10T08:57:21.453Z,63.12
2018-04-10T08:58:21.438Z,63.79
2018-04-10T08:59:21.422Z,64.09
2018-04-10T09:00:21.406Z,61.78
2018-04-10T09:01:21.389Z,61.49
2018-04-10T09:02:21.376Z,62.19
2018-04-10T09:03:21.360Z,62.00
2018-04-10T09:04:21.344Z,61.71
2018-04-10T09:05:21.328Z,61.14
2018-04-10T09:06:21.314Z,59.50
2018-04-10T09:07:21.301Z,60.46
2018-04-10T09:08:21.283Z,60.59
2018-04-10T09:09:21.291Z,60.78
2018-04-10T09:10:21.254Z,60.97
2018-04-10T09:11:21.238Z,60.21
2018-04-10T09:12:21.223Z,60.88
2018-04-10T09:13:21.207Z,61.16
2018-04-10T09:14:21.192Z,59.63
2018-04-10T09:15:21.511Z,60.01
2018-04-10T09:16:21.162Z,60.39
2018-04-10T09:17:21.153Z,59.75
2018-04-10T09:18:21.131Z,58.57
2018-04-10T09:19:21.118Z,59.15
2018-04-10T09:20:21.102Z,58.28
2018-04-10T09:21:21.102Z,58.70
2018-04-10T09:22:21.077Z,59.94
2018-04-10T09:23:21.062Z,59.08
2018-04-10T09:24:21.046Z,58.22
2018-04-10T09:25:21.029Z,58.50
2018-04-10T09:26:21.017Z,58.98
2018-04-10T09:27:20.999Z,58.98
2018-04-10T09:28:20.986Z,58.60
2018-04-10T09:29:20.969Z,58.22
2018-04-10T09:30:20.957Z,58.31
2018-04-10T09:31:20.941Z,58.50
2018-04-10T09:32:20.925Z,57.35
2018-04-10T09:33:20.911Z,57.92
2018-04-10T09:34:20.898Z,58.12
2018-04-10T09:35:20.882Z,57.35
2018-04-10T09:36:20.868Z,57.45
2018-04-10T09:37:20.858Z,57.64
2018-04-10T09:38:20.839Z,56.29
2018-04-10T09:39:20.825Z,56.67
2018-04-10T09:40:20.808Z,58.12
2018-04-10T09:41:20.799Z,57.92
2018-04-10T09:42:20.782Z,58.50
2018-04-10T09:43:20.767Z,57.83
2018-04-10T09:44:20.755Z,57.35
2018-04-10T09:45:20.740Z,57.45
2018-04-10T09:46:21.540Z,56.48
2018-04-10T09:47:20.710Z,55.62
2018-04-10T09:48:20.700Z,55.04
2018-04-10T09:49:20.684Z,55.13
2018-04-10T09:50:20.667Z,55.52
2018-04-10T09:51:20.654Z,56.38
2018-04-10T09:52:20.640Z,55.23
2018-04-10T09:53:20.626Z,55.04
2018-04-10T09:54:20.610Z,54.27
2018-04-10T09:55:20.599Z,53.88
2018-04-10T09:56:20.588Z,54.30
2018-04-10T09:57:20.573Z,54.30
2018-04-10T09:58:20.551Z,53.43
2018-04-10T09:59:20.539Z,53.62
2018-04-10T10:00:20.530Z,53.43
2018-04-10T10:01:20.511Z,53.43
2018-04-10T10:02:20.499Z,52.20
2018-04-10T10:03:20.486Z,52.30
2018-04-10T10:04:20.468Z,52.11
2018-04-10T10:05:20.458Z,52.30
2018-04-10T10:06:20.438Z,52.30
2018-04-10T10:07:20.424Z,51.82
2018-04-10T10:08:20.415Z,52.23
2018-04-10T10:09:20.399Z,52.42
2018-04-10T10:10:20.382Z,52.23
2018-04-10T10:11:20.369Z,52.04
2018-04-10T10:12:20.358Z,53.00
2018-04-10T10:13:20.341Z,52.23
2018-04-10T10:14:20.360Z,53.48
2018-04-10T10:15:20.313Z,51.77
2018-04-10T10:16:20.300Z,51.58
2018-04-10T10:17:20.289Z,51.77
2018-04-10T10:18:20.273Z,51.75
2018-04-10T10:19:20.261Z,51.84
2018-04-10T10:20:20.294Z,52.04
2018-04-10T10:21:20.236Z,53.09
2018-04-10T10:22:20.257Z,51.94
2018-04-10T10:23:20.211Z,51.75
2018-04-10T10:24:20.197Z,52.45
2018-04-10T10:25:20.194Z,52.35
2018-04-10T10:26:20.172Z,51.61
2018-04-10T10:27:20.169Z,51.41
2018-04-10T10:28:20.150Z,50.67
2018-04-10T10:29:20.152Z,50.31
2018-04-10T10:30:20.125Z,49.24
2018-04-10T10:31:20.116Z,49.00
2018-04-10T10:32:20.105Z,46.78
2018-04-10T10:33:20.094Z,45.42
2018-04-10T10:34:20.091Z,46.22
2018-04-10T10:35:20.076Z,46.49
2018-04-10T10:36:20.067Z,46.56
2018-04-10T10:37:20.054Z,46.97
2018-04-10T10:38:20.050Z,47.45
2018-04-10T10:39:20.042Z,45.28
2018-04-10T10:40:20.029Z,45.18
2018-04-10T10:41:20.024Z,46.84
2018-04-10T10:42:20.018Z,44.06
2018-04-10T10:43:20.004Z,42.71
2018-04-10T10:44:19.994Z,42.03
2018-04-10T10:45:19.986Z,40.15
2018-04-10T10:46:19.977Z,39.51
2018-04-10T10:47:20.202Z,37.39
2018-04-10T10:48:19.974Z,36.47
2018-04-10T10:49:19.954Z,35.33
2018-04-10T10:50:19.949Z,34.94
2018-04-10T10:51:19.943Z,35.33
2018-04-10T10:52:19.933Z,35.41
2018-04-10T10:53:19.928Z,35.31
2018-04-10T10:54:19.923Z,34.09
2018-04-10T10:55:19.916Z,33.23
2018-04-10T10:56:19.916Z,32.57
2018-04-10T10:57:19.906Z,32.18
2018-04-10T10:58:19.906Z,31.48
2018-04-10T10:59:19.895Z,31.67
2018-04-10T11:00:19.894Z,31.10
2018-04-10T11:01:19.887Z,31.70
2018-04-10T11:02:19.882Z,30.74
2018-04-10T11:03:19.879Z,29.86
2018-04-10T11:04:19.873Z,29.36
2018-04-10T11:05:19.870Z,30.55
2018-04-10T11:06:19.866Z,30.57
2018-04-10T11:07:19.862Z,30.86
2018-04-10T11:08:19.858Z,29.91
2018-04-10T11:09:19.858Z,29.74
2018-04-10T11:10:19.852Z,29.06
2018-04-10T11:11:19.849Z,28.09
2018-04-10T11:12:19.845Z,27.40
2018-04-10T11:13:19.842Z,26.71
2018-04-10T11:14:19.841Z,27.40
2018-04-10T11:15:19.841Z,25.85
2018-04-10T11:16:19.839Z,25.18
2018-04-10T11:17:19.833Z,24.52
2018-04-10T11:18:20.269Z,23.44
2018-04-10T11:19:19.831Z,24.52
2018-04-10T11:20:19.829Z,24.24
2018-04-10T11:21:19.828Z,24.73
2018-04-10T11:22:19.824Z,25.02
2018-04-10T11:23:19.824Z,25.33
2018-04-10T11:24:19.824Z,24.16
2018-04-10T11:25:19.820Z,24.16
2018-04-10T11:26:19.820Z,23.57
2018-04-10T11:27:19.822Z,23.19
2018-04-10T11:28:19.821Z,22.89
2018-04-10T11:29:19.820Z,22.12
2018-04-10T11:30:19.821Z,22.02
2018-04-10T11:31:19.820Z,22.03
2018-04-10T11:32:19.824Z,21.84
2018-04-10T11:33:19.820Z,20.54
2018-04-10T11:34:19.822Z,20.85
2018-04-10T11:35:19.824Z,20.46
2018-04-10T11:36:19.823Z,19.38
2018-04-10T11:37:19.824Z,19.29
2018-04-10T11:38:19.824Z,20.46
2018-04-10T11:39:19.830Z,20.26
2018-04-10T11:40:19.827Z,20.26
2018-04-10T11:41:19.827Z,20.75
2018-04-10T11:42:19.829Z,19.96
2018-04-10T11:43:19.830Z,19.27
2018-04-10T11:44:19.832Z,20.26
2018-04-10T11:45:19.833Z,19.98
2018-04-10T11:46:19.834Z,20.07
2018-04-10T11:47:19.836Z,18.88
2018-04-10T11:48:19.836Z,19.40
2018-04-10T11:49:20.243Z,18.80
2018-04-10T11:50:19.838Z,19.21
2018-04-10T11:51:19.842Z,19.11
2018-04-10T11:52:19.844Z,19.21
2018-04-10T11:53:19.842Z,18.63
2018-04-10T11:54:19.911Z,17.85
2018-04-10T11:55:19.848Z,18.83
2018-04-10T11:56:19.859Z,18.93
2018-04-10T11:57:19.851Z,18.73
2018-04-10T11:58:19.853Z,18.63
2018-04-10T11:59:19.859Z,18.73
2018-04-10T12:00:19.910Z,18.54
2018-04-10T12:01:19.857Z,18.83
2018-04-10T12:02:19.859Z,18.44
2018-04-10T12:03:19.863Z,18.06
2018-04-10T12:04:19.864Z,17.38
2018-04-10T12:05:19.872Z,17.88
2018-04-10T12:06:19.871Z,16.60
2018-04-10T12:07:19.879Z,16.71
2018-04-10T12:08:19.883Z,16.12
2018-04-10T12:09:19.880Z,16.13
2018-04-10T12:10:19.880Z,16.03
2018-04-10T12:11:19.886Z,16.15
2018-04-10T12:12:19.888Z,15.54
2018-04-10T12:13:19.911Z,15.55
2018-04-10T12:14:19.891Z,15.26
2018-04-10T12:15:19.897Z,15.66
2018-04-10T12:16:19.899Z,15.06
2018-04-10T12:17:19.901Z,15.06
2018-04-10T12:18:19.921Z,15.06
2018-04-10T12:19:19.909Z,15.45
2018-04-10T12:20:20.378Z,15.26
2018-04-10T12:21:19.921Z,15.45
2018-04-10T12:22:19.922Z,15.17
2018-04-10T12:23:19.929Z,15.36
2018-04-10T12:24:19.967Z,15.16
2018-04-10T12:25:19.933Z,15.66
2018-04-10T12:26:19.941Z,15.84
2018-04-10T12:27:19.941Z,15.25
2018-04-10T12:28:19.947Z,14.86
2018-04-10T12:29:19.955Z,15.16
2018-04-10T12:30:19.954Z,15.36
2018-04-10T12:31:19.961Z,15.45
2018-04-10T12:32:19.962Z,15.64
2018-04-10T12:33:19.970Z,15.64
2018-04-10T12:34:19.985Z,15.26
2018-04-10T12:35:19.975Z,14.86
2018-04-10T12:36:19.982Z,14.07
2018-04-10T12:37:19.983Z,14.87
2018-04-10T12:38:19.992Z,14.47
2018-04-10T12:39:19.989Z,14.97
2018-04-10T12:40:19.993Z,14.57
2018-04-10T12:41:20.010Z,14.28
2018-04-10T12:42:20.007Z,13.68
2018-04-10T12:43:20.011Z,14.37
2018-04-10T12:44:20.011Z,13.98
2018-04-10T12:45:20.014Z,14.38
2018-04-10T12:46:20.895Z,13.68
2018-04-10T12:47:20.844Z,13.99
2018-04-10T12:48:20.071Z,13.70
2018-04-10T12:49:20.086Z,13.10
2018-04-10T12:50:20.642Z,13.31
2018-04-10T12:51:20.045Z,13.31
2018-04-10T12:52:20.051Z,13.60